sensor_id;sensor_type;location;lat;lon;timestamp;temperature;humidity
28947;DHT22;16052;50.930;5.326;2023-05-18T00:00:00;14.10;99.90
28947;DHT22;16052;50.930;5.326;2023-05-18T00:02:25;14.00;99.90
28947;DHT22;16052;50.930;5.326;2023-05-18T00:04:51;14.00;99.90
28947;DHT22;16052;50.930;5.326;2023-05-18T00:07:17;13.80;99.90
28947;DHT22;16052;50.930;5.326;2023-05-18T00:09:43;13.70;99.90
28947;DHT22;16052;50.930;5.326;2023-05-18T00:12:08;13.80;99.90
28947;DHT22;16052;50.930;5.326;2023-05-18T00:14:35;13.70;99.90
28947;DHT22;16052;50.930;5.326;2023-05-18T00:17:00;13.80;99.90
28947;DHT22;16052;50.930;5.326;2023-05-18T00:19:27;13.80;99.90
28947;DHT22;16052;50.930;5.326;2023-05-18T00:21:54;13.70;99.90
28947;DHT22;16052;50.930;5.326;2023-05-18T00:24:21;13.80;99.90
28947;DHT22;16052;50.930;5.326;2023-05-18T00:26:48;13.60;99.90
28947;DHT22;16052;50.930;5.326;2023-05-18T00:29:14;13.60;99.90
28947;DHT22;16052;50.930;5.326;2023-05-18T00:31:40;13.50;99.90
28947;DHT22;16052;50.930;5.326;2023-05-18T00:34:13;13.40;99.90
28947;DHT22;16052;50.930;5.326;2023-05-18T00:36:40;13.50;99.90
28947;DHT22;16052;50.930;5.326;2023-05-18T00:39:07;13.60;99.90
28947;DHT22;16052;50.930;5.326;2023-05-18T00:41:34;13.60;99.90
28947;DHT22;16052;50.930;5.326;2023-05-18T00:44:00;13.60;99.90
28947;DHT22;16052;50.930;5.326;2023-05-18T00:46:26;13.50;99.90
28947;DHT22;16052;50.930;5.326;2023-05-18T00:48:54;13.40;99.90
28947;DHT22;16052;50.930;5.326;2023-05-18T00:51:22;13.10;99.90
28947;DHT22;16052;50.930;5.326;2023-05-18T00:53:49;13.10;99.90
28947;DHT22;16052;50.930;5.326;2023-05-18T00:56:15;13.00;99.90
28947;DHT22;16052;50.930;5.326;2023-05-18T00:58:41;13.00;99.90
28947;DHT22;16052;50.930;5.326;2023-05-18T01:01:08;12.90;99.90
28947;DHT22;16052;50.930;5.326;2023-05-18T01:03:37;13.00;99.90
28947;DHT22;16052;50.930;5.326;2023-05-18T01:06:06;12.90;99.90
28947;DHT22;16052;50.930;5.326;2023-05-18T01:08:33;12.90;99.90
28947;DHT22;16052;50.930;5.326;2023-05-18T01:16:40;12.70;99.90
28947;DHT22;16052;50.930;5.326;2023-05-18T01:22:37;12.70;99.90
28947;DHT22;16052;50.930;5.326;2023-05-18T01:28:00;12.90;99.90
28947;DHT22;16052;50.930;5.326;2023-05-18T01:30:34;13.00;99.90
28947;DHT22;16052;50.930;5.326;2023-05-18T01:33:09;12.90;99.90
28947;DHT22;16052;50.930;5.326;2023-05-18T01:35:36;12.80;99.90
28947;DHT22;16052;50.930;5.326;2023-05-18T01:38:02;12.90;99.90
28947;DHT22;16052;50.930;5.326;2023-05-18T01:40:36;12.90;99.90
28947;DHT22;16052;50.930;5.326;2023-05-18T01:43:10;12.80;99.90
28947;DHT22;16052;50.930;5.326;2023-05-18T01:45:38;12.60;99.90
28947;DHT22;16052;50.930;5.326;2023-05-18T01:48:05;12.50;99.90
28947;DHT22;16052;50.930;5.326;2023-05-18T01:50:35;12.60;99.90
28947;DHT22;16052;50.930;5.326;2023-05-18T01:53:20;12.60;99.90
28947;DHT22;16052;50.930;5.326;2023-05-18T01:55:49;12.60;99.90
28947;DHT22;16052;50.930;5.326;2023-05-18T01:58:17;12.60;99.90
28947;DHT22;16052;50.930;5.326;2023-05-18T02:00:45;12.60;99.90
28947;DHT22;16052;50.930;5.326;2023-05-18T02:03:12;12.60;99.90
28947;DHT22;16052;50.930;5.326;2023-05-18T02:05:38;12.50;99.90
28947;DHT22;16052;50.930;5.326;2023-05-18T02:08:04;12.60;99.90
28947;DHT22;16052;50.930;5.326;2023-05-18T02:10:30;12.60;99.90
28947;DHT22;16052;50.930;5.326;2023-05-18T02:12:55;12.60;99.90
28947;DHT22;16052;50.930;5.326;2023-05-18T02:15:21;12.50;99.90
28947;DHT22;16052;50.930;5.326;2023-05-18T02:17:47;12.40;99.90
28947;DHT22;16052;50.930;5.326;2023-05-18T02:20:13;12.40;99.90
28947;DHT22;16052;50.930;5.326;2023-05-18T02:22:43;12.60;99.90
28947;DHT22;16052;50.930;5.326;2023-05-18T02:25:10;12.60;99.90
28947;DHT22;16052;50.930;5.326;2023-05-18T02:27:36;12.40;99.90
28947;DHT22;16052;50.930;5.326;2023-05-18T02:30:03;12.30;99.90
28947;DHT22;16052;50.930;5.326;2023-05-18T02:32:29;12.30;99.90
28947;DHT22;16052;50.930;5.326;2023-05-18T02:34:57;12.10;99.90
28947;DHT22;16052;50.930;5.326;2023-05-18T02:37:27;12.10;99.90
28947;DHT22;16052;50.930;5.326;2023-05-18T02:39:53;12.10;99.90
28947;DHT22;16052;50.930;5.326;2023-05-18T02:42:19;12.10;99.90
28947;DHT22;16052;50.930;5.326;2023-05-18T02:44:44;12.30;99.90
28947;DHT22;16052;50.930;5.326;2023-05-18T02:47:10;12.10;99.90
28947;DHT22;16052;50.930;5.326;2023-05-18T02:49:36;12.10;99.90
28947;DHT22;16052;50.930;5.326;2023-05-18T02:52:01;12.20;99.90
28947;DHT22;16052;50.930;5.326;2023-05-18T02:54:27;12.20;99.90
28947;DHT22;16052;50.930;5.326;2023-05-18T02:56:53;12.20;99.90
28947;DHT22;16052;50.930;5.326;2023-05-18T02:59:21;12.20;99.90
28947;DHT22;16052;50.930;5.326;2023-05-18T03:01:46;12.30;99.90
28947;DHT22;16052;50.930;5.326;2023-05-18T03:04:12;12.20;99.90
28947;DHT22;16052;50.930;5.326;2023-05-18T03:06:38;12.20;99.90
28947;DHT22;16052;50.930;5.326;2023-05-18T03:09:04;12.20;99.90
28947;DHT22;16052;50.930;5.326;2023-05-18T03:11:30;12.10;99.90
28947;DHT22;16052;50.930;5.326;2023-05-18T03:13:56;12.00;99.90
28947;DHT22;16052;50.930;5.326;2023-05-18T03:16:22;12.00;99.90
28947;DHT22;16052;50.930;5.326;2023-05-18T03:18:53;12.00;99.90
28947;DHT22;16052;50.930;5.326;2023-05-18T03:21:18;12.00;99.90
28947;DHT22;16052;50.930;5.326;2023-05-18T03:23:44;12.10;99.90
28947;DHT22;16052;50.930;5.326;2023-05-18T03:26:10;12.10;99.90
28947;DHT22;16052;50.930;5.326;2023-05-18T03:28:39;12.00;99.90
28947;DHT22;16052;50.930;5.326;2023-05-18T03:31:05;12.20;99.90
28947;DHT22;16052;50.930;5.326;2023-05-18T03:33:31;12.20;99.90
28947;DHT22;16052;50.930;5.326;2023-05-18T03:36:01;12.10;99.90
28947;DHT22;16052;50.930;5.326;2023-05-18T03:38:27;12.00;99.90
28947;DHT22;16052;50.930;5.326;2023-05-18T03:40:52;12.10;99.90
28947;DHT22;16052;50.930;5.326;2023-05-18T03:43:19;12.10;99.90
28947;DHT22;16052;50.930;5.326;2023-05-18T03:45:45;12.10;99.90
28947;DHT22;16052;50.930;5.326;2023-05-18T03:48:10;12.10;99.90
28947;DHT22;16052;50.930;5.326;2023-05-18T03:50:36;12.10;99.90
28947;DHT22;16052;50.930;5.326;2023-05-18T03:53:01;12.10;99.90
28947;DHT22;16052;50.930;5.326;2023-05-18T03:55:28;12.00;99.90
28947;DHT22;16052;50.930;5.326;2023-05-18T03:57:54;12.00;99.90
28947;DHT22;16052;50.930;5.326;2023-05-18T04:00:20;12.10;99.90
28947;DHT22;16052;50.930;5.326;2023-05-18T04:02:46;12.00;99.90
28947;DHT22;16052;50.930;5.326;2023-05-18T04:05:12;11.90;99.90
28947;DHT22;16052;50.930;5.326;2023-05-18T04:07:37;12.00;99.90
28947;DHT22;16052;50.930;5.326;2023-05-18T04:10:09;12.20;99.90
28947;DHT22;16052;50.930;5.326;2023-05-18T04:12:36;12.10;99.90
28947;DHT22;16052;50.930;5.326;2023-05-18T04:15:02;12.10;99.90
28947;DHT22;16052;50.930;5.326;2023-05-18T04:17:28;12.20;99.90
28947;DHT22;16052;50.930;5.326;2023-05-18T04:19:54;12.20;99.90
28947;DHT22;16052;50.930;5.326;2023-05-18T04:22:20;12.20;99.90
28947;DHT22;16052;50.930;5.326;2023-05-18T04:24:46;12.30;99.90
28947;DHT22;16052;50.930;5.326;2023-05-18T04:27:12;12.30;99.90
28947;DHT22;16052;50.930;5.326;2023-05-18T04:29:38;12.10;99.90
28947;DHT22;16052;50.930;5.326;2023-05-18T04:32:08;12.10;99.90
28947;DHT22;16052;50.930;5.326;2023-05-18T04:34:36;12.00;99.90
28947;DHT22;16052;50.930;5.326;2023-05-18T04:37:03;12.10;99.90
28947;DHT22;16052;50.930;5.326;2023-05-18T04:39:32;12.10;99.90
28947;DHT22;16052;50.930;5.326;2023-05-18T04:41:59;12.10;99.90
28947;DHT22;16052;50.930;5.326;2023-05-18T04:44:29;12.00;99.90
28947;DHT22;16052;50.930;5.326;2023-05-18T04:46:56;12.10;99.90
28947;DHT22;16052;50.930;5.326;2023-05-18T04:49:22;12.10;99.90
28947;DHT22;16052;50.930;5.326;2023-05-18T04:51:52;12.20;99.90
28947;DHT22;16052;50.930;5.326;2023-05-18T04:54:24;12.30;99.90
28947;DHT22;16052;50.930;5.326;2023-05-18T04:56:51;12.20;99.90
28947;DHT22;16052;50.930;5.326;2023-05-18T04:59:16;12.20;99.90
28947;DHT22;16052;50.930;5.326;2023-05-18T05:01:42;12.10;99.90
28947;DHT22;16052;50.930;5.326;2023-05-18T05:04:08;12.10;99.90
28947;DHT22;16052;50.930;5.326;2023-05-18T05:06:34;12.00;99.90
28947;DHT22;16052;50.930;5.326;2023-05-18T05:09:00;11.90;99.90
28947;DHT22;16052;50.930;5.326;2023-05-18T05:11:26;11.90;99.90
28947;DHT22;16052;50.930;5.326;2023-05-18T05:13:51;11.90;99.90
28947;DHT22;16052;50.930;5.326;2023-05-18T05:16:17;12.00;99.90
28947;DHT22;16052;50.930;5.326;2023-05-18T05:18:43;12.00;99.90
28947;DHT22;16052;50.930;5.326;2023-05-18T05:21:09;12.10;99.90
28947;DHT22;16052;50.930;5.326;2023-05-18T05:23:35;12.10;99.90
28947;DHT22;16052;50.930;5.326;2023-05-18T05:26:00;12.10;99.90
28947;DHT22;16052;50.930;5.326;2023-05-18T05:28:26;12.10;99.90
28947;DHT22;16052;50.930;5.326;2023-05-18T05:30:52;12.10;99.90
28947;DHT22;16052;50.930;5.326;2023-05-18T05:33:17;12.20;99.90
28947;DHT22;16052;50.930;5.326;2023-05-18T05:35:43;12.30;99.90
28947;DHT22;16052;50.930;5.326;2023-05-18T05:38:09;12.30;99.90
28947;DHT22;16052;50.930;5.326;2023-05-18T05:40:35;12.20;99.90
28947;DHT22;16052;50.930;5.326;2023-05-18T05:43:01;12.30;99.90
28947;DHT22;16052;50.930;5.326;2023-05-18T05:45:26;12.20;99.90
28947;DHT22;16052;50.930;5.326;2023-05-18T05:47:55;12.20;99.90
28947;DHT22;16052;50.930;5.326;2023-05-18T05:50:20;12.20;99.90
28947;DHT22;16052;50.930;5.326;2023-05-18T05:52:46;12.10;99.90
28947;DHT22;16052;50.930;5.326;2023-05-18T05:55:12;12.10;99.90
28947;DHT22;16052;50.930;5.326;2023-05-18T05:57:37;12.20;99.90
28947;DHT22;16052;50.930;5.326;2023-05-18T06:00:10;12.20;99.90
28947;DHT22;16052;50.930;5.326;2023-05-18T06:02:37;12.30;99.90
28947;DHT22;16052;50.930;5.326;2023-05-18T06:05:04;12.30;99.90
28947;DHT22;16052;50.930;5.326;2023-05-18T06:07:30;12.30;99.90
28947;DHT22;16052;50.930;5.326;2023-05-18T06:09:56;12.30;99.90
28947;DHT22;16052;50.930;5.326;2023-05-18T06:12:21;12.30;99.90
28947;DHT22;16052;50.930;5.326;2023-05-18T06:14:47;12.30;99.90
28947;DHT22;16052;50.930;5.326;2023-05-18T06:17:13;12.30;99.90
28947;DHT22;16052;50.930;5.326;2023-05-18T06:19:39;12.30;99.90
28947;DHT22;16052;50.930;5.326;2023-05-18T06:22:04;12.40;99.90
28947;DHT22;16052;50.930;5.326;2023-05-18T06:24:30;12.50;99.90
28947;DHT22;16052;50.930;5.326;2023-05-18T06:26:56;12.70;99.90
28947;DHT22;16052;50.930;5.326;2023-05-18T06:29:21;12.70;99.90
28947;DHT22;16052;50.930;5.326;2023-05-18T06:31:47;12.70;99.90
28947;DHT22;16052;50.930;5.326;2023-05-18T06:34:13;12.60;99.90
28947;DHT22;16052;50.930;5.326;2023-05-18T06:36:39;12.60;99.90
28947;DHT22;16052;50.930;5.326;2023-05-18T06:39:04;12.70;99.90
28947;DHT22;16052;50.930;5.326;2023-05-18T06:41:31;12.80;99.90
28947;DHT22;16052;50.930;5.326;2023-05-18T06:43:57;12.90;99.90
28947;DHT22;16052;50.930;5.326;2023-05-18T06:46:25;12.90;99.90
28947;DHT22;16052;50.930;5.326;2023-05-18T06:48:51;13.00;99.90
28947;DHT22;16052;50.930;5.326;2023-05-18T06:51:18;13.00;99.90
28947;DHT22;16052;50.930;5.326;2023-05-18T06:53:43;13.00;99.90
28947;DHT22;16052;50.930;5.326;2023-05-18T06:56:09;13.00;99.90
28947;DHT22;16052;50.930;5.326;2023-05-18T06:58:39;13.10;99.90
28947;DHT22;16052;50.930;5.326;2023-05-18T07:01:05;13.20;99.90
28947;DHT22;16052;50.930;5.326;2023-05-18T07:03:31;13.30;99.90
28947;DHT22;16052;50.930;5.326;2023-05-18T07:05:57;13.20;99.90
28947;DHT22;16052;50.930;5.326;2023-05-18T07:08:23;13.30;99.90
28947;DHT22;16052;50.930;5.326;2023-05-18T07:10:50;13.50;99.90
28947;DHT22;16052;50.930;5.326;2023-05-18T07:13:17;13.50;99.90
28947;DHT22;16052;50.930;5.326;2023-05-18T07:15:43;13.60;99.90
28947;DHT22;16052;50.930;5.326;2023-05-18T07:18:08;13.70;99.90
28947;DHT22;16052;50.930;5.326;2023-05-18T07:20:34;13.70;99.90
28947;DHT22;16052;50.930;5.326;2023-05-18T07:23:00;13.80;99.90
28947;DHT22;16052;50.930;5.326;2023-05-18T07:25:26;14.00;99.90
28947;DHT22;16052;50.930;5.326;2023-05-18T07:27:53;14.10;99.90
28947;DHT22;16052;50.930;5.326;2023-05-18T07:30:20;14.00;99.90
28947;DHT22;16052;50.930;5.326;2023-05-18T07:32:46;13.90;99.90
28947;DHT22;16052;50.930;5.326;2023-05-18T07:35:12;13.90;99.90
28947;DHT22;16052;50.930;5.326;2023-05-18T07:37:37;14.00;99.90
28947;DHT22;16052;50.930;5.326;2023-05-18T07:40:04;14.10;99.90
28947;DHT22;16052;50.930;5.326;2023-05-18T07:42:30;14.30;99.90
28947;DHT22;16052;50.930;5.326;2023-05-18T07:44:58;14.40;99.90
28947;DHT22;16052;50.930;5.326;2023-05-18T07:47:24;14.40;99.90
28947;DHT22;16052;50.930;5.326;2023-05-18T07:49:50;14.40;99.90
28947;DHT22;16052;50.930;5.326;2023-05-18T07:52:15;14.50;99.90
28947;DHT22;16052;50.930;5.326;2023-05-18T07:54:42;14.50;99.90
28947;DHT22;16052;50.930;5.326;2023-05-18T07:57:08;14.70;99.90
28947;DHT22;16052;50.930;5.326;2023-05-18T07:59:34;14.70;99.90
28947;DHT22;16052;50.930;5.326;2023-05-18T08:02:00;14.80;99.90
28947;DHT22;16052;50.930;5.326;2023-05-18T08:04:26;14.70;99.90
28947;DHT22;16052;50.930;5.326;2023-05-18T08:06:52;14.70;99.90
28947;DHT22;16052;50.930;5.326;2023-05-18T08:09:20;14.70;99.90
28947;DHT22;16052;50.930;5.326;2023-05-18T08:11:48;14.80;99.90
28947;DHT22;16052;50.930;5.326;2023-05-18T08:14:15;14.80;99.90
28947;DHT22;16052;50.930;5.326;2023-05-18T08:16:41;14.90;99.90
28947;DHT22;16052;50.930;5.326;2023-05-18T08:19:06;15.10;99.90
28947;DHT22;16052;50.930;5.326;2023-05-18T08:21:32;15.10;99.90
28947;DHT22;16052;50.930;5.326;2023-05-18T08:23:59;15.20;99.90
28947;DHT22;16052;50.930;5.326;2023-05-18T08:26:24;15.20;99.90
28947;DHT22;16052;50.930;5.326;2023-05-18T08:28:51;15.30;99.90
28947;DHT22;16052;50.930;5.326;2023-05-18T08:31:17;15.20;99.90
28947;DHT22;16052;50.930;5.326;2023-05-18T08:33:42;15.20;99.90
28947;DHT22;16052;50.930;5.326;2023-05-18T08:36:08;15.30;99.90
28947;DHT22;16052;50.930;5.326;2023-05-18T08:38:34;15.40;99.90
28947;DHT22;16052;50.930;5.326;2023-05-18T08:43:30;15.40;99.90
28947;DHT22;16052;50.930;5.326;2023-05-18T08:46:12;15.50;99.90
28947;DHT22;16052;50.930;5.326;2023-05-18T08:48:43;15.50;99.90
28947;DHT22;16052;50.930;5.326;2023-05-18T08:51:10;15.50;99.90
28947;DHT22;16052;50.930;5.326;2023-05-18T08:53:37;15.60;99.90
28947;DHT22;16052;50.930;5.326;2023-05-18T08:56:04;15.70;99.90
28947;DHT22;16052;50.930;5.326;2023-05-18T08:58:34;15.80;99.90
28947;DHT22;16052;50.930;5.326;2023-05-18T09:01:01;16.00;99.90
28947;DHT22;16052;50.930;5.326;2023-05-18T09:03:27;16.20;99.90
28947;DHT22;16052;50.930;5.326;2023-05-18T09:05:55;16.20;99.90
28947;DHT22;16052;50.930;5.326;2023-05-18T09:08:22;16.20;99.90
28947;DHT22;16052;50.930;5.326;2023-05-18T09:10:49;16.20;99.90
28947;DHT22;16052;50.930;5.326;2023-05-18T09:13:18;16.30;99.90
28947;DHT22;16052;50.930;5.326;2023-05-18T09:15:46;16.40;99.90
28947;DHT22;16052;50.930;5.326;2023-05-18T09:18:13;16.40;99.90
28947;DHT22;16052;50.930;5.326;2023-05-18T09:20:39;16.50;99.90
28947;DHT22;16052;50.930;5.326;2023-05-18T09:23:04;16.60;99.90
28947;DHT22;16052;50.930;5.326;2023-05-18T09:25:32;16.60;99.90
28947;DHT22;16052;50.930;5.326;2023-05-18T09:28:01;16.60;99.90
28947;DHT22;16052;50.930;5.326;2023-05-18T09:30:28;16.50;99.90
28947;DHT22;16052;50.930;5.326;2023-05-18T09:32:54;16.60;99.90
28947;DHT22;16052;50.930;5.326;2023-05-18T09:35:21;16.60;99.90
28947;DHT22;16052;50.930;5.326;2023-05-18T09:37:48;16.70;99.90
28947;DHT22;16052;50.930;5.326;2023-05-18T09:40:14;16.80;99.90
28947;DHT22;16052;50.930;5.326;2023-05-18T09:42:42;17.00;99.90
28947;DHT22;16052;50.930;5.326;2023-05-18T09:45:20;17.10;99.90
28947;DHT22;16052;50.930;5.326;2023-05-18T09:47:51;17.10;99.90
28947;DHT22;16052;50.930;5.326;2023-05-18T09:50:18;17.00;99.90
28947;DHT22;16052;50.930;5.326;2023-05-18T09:52:45;17.10;99.90
28947;DHT22;16052;50.930;5.326;2023-05-18T09:55:11;17.00;99.90
28947;DHT22;16052;50.930;5.326;2023-05-18T09:57:41;17.20;99.90
28947;DHT22;16052;50.930;5.326;2023-05-18T10:00:08;17.20;99.90
28947;DHT22;16052;50.930;5.326;2023-05-18T10:02:40;17.20;99.90
28947;DHT22;16052;50.930;5.326;2023-05-18T10:05:27;17.20;99.90
28947;DHT22;16052;50.930;5.326;2023-05-18T10:07:55;17.20;99.90
28947;DHT22;16052;50.930;5.326;2023-05-18T10:10:25;17.20;99.90
28947;DHT22;16052;50.930;5.326;2023-05-18T10:12:53;17.20;99.90
28947;DHT22;16052;50.930;5.326;2023-05-18T10:15:23;17.30;99.90
28947;DHT22;16052;50.930;5.326;2023-05-18T10:17:50;17.30;99.90
28947;DHT22;16052;50.930;5.326;2023-05-18T10:20:21;17.40;99.90
28947;DHT22;16052;50.930;5.326;2023-05-18T10:22:51;17.60;99.90
28947;DHT22;16052;50.930;5.326;2023-05-18T10:25:20;17.60;99.90
28947;DHT22;16052;50.930;5.326;2023-05-18T10:27:51;17.40;99.90
28947;DHT22;16052;50.930;5.326;2023-05-18T10:30:20;17.40;99.90
28947;DHT22;16052;50.930;5.326;2023-05-18T10:32:47;17.20;99.90
28947;DHT22;16052;50.930;5.326;2023-05-18T10:35:13;17.10;99.90
28947;DHT22;16052;50.930;5.326;2023-05-18T10:37:44;17.20;99.90
28947;DHT22;16052;50.930;5.326;2023-05-18T10:40:13;17.40;99.90
28947;DHT22;16052;50.930;5.326;2023-05-18T10:42:40;17.40;99.90
28947;DHT22;16052;50.930;5.326;2023-05-18T10:45:08;17.50;99.90
28947;DHT22;16052;50.930;5.326;2023-05-18T10:47:35;17.60;99.90
28947;DHT22;16052;50.930;5.326;2023-05-18T10:50:05;17.80;99.90
28947;DHT22;16052;50.930;5.326;2023-05-18T10:52:31;17.90;99.90
28947;DHT22;16052;50.930;5.326;2023-05-18T10:54:58;18.00;99.90
28947;DHT22;16052;50.930;5.326;2023-05-18T10:57:48;18.10;99.90
28947;DHT22;16052;50.930;5.326;2023-05-18T11:00:12;18.20;99.90
28947;DHT22;16052;50.930;5.326;2023-05-18T11:02:41;18.10;99.90
28947;DHT22;16052;50.930;5.326;2023-05-18T11:05:08;18.20;99.90
28947;DHT22;16052;50.930;5.326;2023-05-18T11:07:35;18.20;98.90
28947;DHT22;16052;50.930;5.326;2023-05-18T11:10:02;18.20;99.00
28947;DHT22;16052;50.930;5.326;2023-05-18T11:12:31;18.30;99.70
28947;DHT22;16052;50.930;5.326;2023-05-18T11:14:58;18.40;99.90
28947;DHT22;16052;50.930;5.326;2023-05-18T11:17:28;18.40;99.90
28947;DHT22;16052;50.930;5.326;2023-05-18T11:25:08;18.40;99.90
28947;DHT22;16052;50.930;5.326;2023-05-18T11:27:34;18.50;99.50
28947;DHT22;16052;50.930;5.326;2023-05-18T11:29:59;18.50;98.20
28947;DHT22;16052;50.930;5.326;2023-05-18T11:32:27;18.60;97.30
28947;DHT22;16052;50.930;5.326;2023-05-18T11:34:54;18.60;96.40
28947;DHT22;16052;50.930;5.326;2023-05-18T11:40:10;18.70;99.90
28947;DHT22;16052;50.930;5.326;2023-05-18T11:42:36;18.60;99.40
28947;DHT22;16052;50.930;5.326;2023-05-18T11:45:06;18.80;97.70
28947;DHT22;16052;50.930;5.326;2023-05-18T11:47:32;18.80;96.70
28947;DHT22;16052;50.930;5.326;2023-05-18T11:49:59;18.80;98.40
28947;DHT22;16052;50.930;5.326;2023-05-18T11:52:25;18.90;96.40
28947;DHT22;16052;50.930;5.326;2023-05-18T11:57:41;19.00;94.90
28947;DHT22;16052;50.930;5.326;2023-05-18T12:00:07;19.00;94.10
28947;DHT22;16052;50.930;5.326;2023-05-18T12:02:34;19.10;96.70
28947;DHT22;16052;50.930;5.326;2023-05-18T12:05:01;19.20;97.10
28947;DHT22;16052;50.930;5.326;2023-05-18T12:07:31;19.30;95.10
28947;DHT22;16052;50.930;5.326;2023-05-18T12:10:00;19.30;96.40
28947;DHT22;16052;50.930;5.326;2023-05-18T12:12:27;19.30;94.60
28947;DHT22;16052;50.930;5.326;2023-05-18T12:14:57;19.40;94.20
28947;DHT22;16052;50.930;5.326;2023-05-18T12:17:39;19.50;95.40
28947;DHT22;16052;50.930;5.326;2023-05-18T12:20:13;19.60;94.00
28947;DHT22;16052;50.930;5.326;2023-05-18T12:22:46;19.60;93.90
28947;DHT22;16052;50.930;5.326;2023-05-18T12:25:14;19.70;95.30
28947;DHT22;16052;50.930;5.326;2023-05-18T12:27:45;19.70;94.00
28947;DHT22;16052;50.930;5.326;2023-05-18T12:30:19;19.60;93.90
28947;DHT22;16052;50.930;5.326;2023-05-18T12:32:47;19.50;93.80
28947;DHT22;16052;50.930;5.326;2023-05-18T12:35:13;19.60;94.60
28947;DHT22;16052;50.930;5.326;2023-05-18T12:37:45;19.70;94.80
28947;DHT22;16052;50.930;5.326;2023-05-18T12:40:13;19.80;94.50
28947;DHT22;16052;50.930;5.326;2023-05-18T12:42:39;19.80;93.10
28947;DHT22;16052;50.930;5.326;2023-05-18T12:45:05;19.80;94.40
28947;DHT22;16052;50.930;5.326;2023-05-18T12:47:32;19.90;94.00
28947;DHT22;16052;50.930;5.326;2023-05-18T12:50:01;20.00;92.50
28947;DHT22;16052;50.930;5.326;2023-05-18T12:52:28;20.10;93.00
28947;DHT22;16052;50.930;5.326;2023-05-18T12:54:55;20.10;92.80
28947;DHT22;16052;50.930;5.326;2023-05-18T12:57:24;19.90;92.20
28947;DHT22;16052;50.930;5.326;2023-05-18T12:59:52;19.90;92.70
28947;DHT22;16052;50.930;5.326;2023-05-18T13:02:29;19.90;92.30
28947;DHT22;16052;50.930;5.326;2023-05-18T13:05:10;19.80;91.00
28947;DHT22;16052;50.930;5.326;2023-05-18T13:07:41;19.70;91.90
28947;DHT22;16052;50.930;5.326;2023-05-18T13:10:17;19.60;92.50
28947;DHT22;16052;50.930;5.326;2023-05-18T13:12:48;19.60;92.90
28947;DHT22;16052;50.930;5.326;2023-05-18T13:15:19;19.80;92.20
28947;DHT22;16052;50.930;5.326;2023-05-18T13:20:21;19.90;90.40
28947;DHT22;16052;50.930;5.326;2023-05-18T13:22:51;19.80;88.20
28947;DHT22;16052;50.930;5.326;2023-05-18T13:25:17;19.80;87.40
28947;DHT22;16052;50.930;5.326;2023-05-18T13:27:42;19.70;87.60
28947;DHT22;16052;50.930;5.326;2023-05-18T13:30:12;19.80;89.10
28947;DHT22;16052;50.930;5.326;2023-05-18T13:32:38;19.70;87.50
28947;DHT22;16052;50.930;5.326;2023-05-18T13:35:04;19.80;87.90
28947;DHT22;16052;50.930;5.326;2023-05-18T13:37:30;19.90;86.00
28947;DHT22;16052;50.930;5.326;2023-05-18T13:39:56;19.90;87.30
28947;DHT22;16052;50.930;5.326;2023-05-18T13:42:21;19.90;88.40
28947;DHT22;16052;50.930;5.326;2023-05-18T13:44:47;20.00;89.50
28947;DHT22;16052;50.930;5.326;2023-05-18T13:47:13;20.00;90.30
28947;DHT22;16052;50.930;5.326;2023-05-18T13:49:39;20.10;89.50
28947;DHT22;16052;50.930;5.326;2023-05-18T13:52:04;20.10;89.10
28947;DHT22;16052;50.930;5.326;2023-05-18T13:54:30;20.10;90.10
28947;DHT22;16052;50.930;5.326;2023-05-18T13:56:56;20.10;90.30
28947;DHT22;16052;50.930;5.326;2023-05-18T13:59:21;20.20;89.80
28947;DHT22;16052;50.930;5.326;2023-05-18T14:01:47;20.30;90.20
28947;DHT22;16052;50.930;5.326;2023-05-18T14:04:14;20.40;88.10
28947;DHT22;16052;50.930;5.326;2023-05-18T14:06:39;20.60;84.40
28947;DHT22;16052;50.930;5.326;2023-05-18T14:09:05;20.60;85.50
28947;DHT22;16052;50.930;5.326;2023-05-18T14:11:31;20.60;87.30
28947;DHT22;16052;50.930;5.326;2023-05-18T14:14:01;20.60;87.20
28947;DHT22;16052;50.930;5.326;2023-05-18T14:16:27;20.60;89.60
28947;DHT22;16052;50.930;5.326;2023-05-18T14:18:54;20.60;87.70
28947;DHT22;16052;50.930;5.326;2023-05-18T14:21:19;20.60;85.50
28947;DHT22;16052;50.930;5.326;2023-05-18T14:23:45;20.70;87.60
28947;DHT22;16052;50.930;5.326;2023-05-18T14:26:12;20.80;85.20
28947;DHT22;16052;50.930;5.326;2023-05-18T14:28:38;21.00;84.10
28947;DHT22;16052;50.930;5.326;2023-05-18T14:31:03;20.90;82.50
28947;DHT22;16052;50.930;5.326;2023-05-18T14:33:29;21.00;83.90
28947;DHT22;16052;50.930;5.326;2023-05-18T14:35:55;21.10;84.70
28947;DHT22;16052;50.930;5.326;2023-05-18T14:38:22;21.20;81.40
28947;DHT22;16052;50.930;5.326;2023-05-18T14:40:51;21.10;81.50
28947;DHT22;16052;50.930;5.326;2023-05-18T14:43:17;21.20;82.40
28947;DHT22;16052;50.930;5.326;2023-05-18T14:45:43;21.20;81.30
28947;DHT22;16052;50.930;5.326;2023-05-18T14:48:09;21.20;82.00
28947;DHT22;16052;50.930;5.326;2023-05-18T14:50:36;21.10;81.10
28947;DHT22;16052;50.930;5.326;2023-05-18T14:53:01;21.10;80.60
28947;DHT22;16052;50.930;5.326;2023-05-18T14:55:27;21.10;80.00
28947;DHT22;16052;50.930;5.326;2023-05-18T14:57:53;21.10;80.40
28947;DHT22;16052;50.930;5.326;2023-05-18T15:00:18;21.10;79.50
28947;DHT22;16052;50.930;5.326;2023-05-18T15:02:44;21.00;80.50
28947;DHT22;16052;50.930;5.326;2023-05-18T15:05:10;21.00;80.50
28947;DHT22;16052;50.930;5.326;2023-05-18T15:07:36;21.00;82.10
28947;DHT22;16052;50.930;5.326;2023-05-18T15:10:02;21.00;82.70
28947;DHT22;16052;50.930;5.326;2023-05-18T15:12:28;21.10;82.20
28947;DHT22;16052;50.930;5.326;2023-05-18T15:14:54;21.20;83.30
28947;DHT22;16052;50.930;5.326;2023-05-18T15:17:20;21.30;81.80
28947;DHT22;16052;50.930;5.326;2023-05-18T15:19:46;21.20;81.00
28947;DHT22;16052;50.930;5.326;2023-05-18T15:22:12;21.30;80.90
28947;DHT22;16052;50.930;5.326;2023-05-18T15:24:37;21.40;79.20
28947;DHT22;16052;50.930;5.326;2023-05-18T15:27:03;21.50;77.50
28947;DHT22;16052;50.930;5.326;2023-05-18T15:29:29;21.60;78.90
28947;DHT22;16052;50.930;5.326;2023-05-18T15:31:55;21.60;78.80
28947;DHT22;16052;50.930;5.326;2023-05-18T15:34:20;21.60;78.40
28947;DHT22;16052;50.930;5.326;2023-05-18T15:36:46;21.70;77.30
28947;DHT22;16052;50.930;5.326;2023-05-18T15:39:12;21.70;76.20
28947;DHT22;16052;50.930;5.326;2023-05-18T15:41:38;21.60;76.60
28947;DHT22;16052;50.930;5.326;2023-05-18T15:44:03;21.40;77.00
28947;DHT22;16052;50.930;5.326;2023-05-18T15:46:30;21.30;78.60
28947;DHT22;16052;50.930;5.326;2023-05-18T15:48:57;21.30;78.20
28947;DHT22;16052;50.930;5.326;2023-05-18T15:51:23;21.30;79.20
28947;DHT22;16052;50.930;5.326;2023-05-18T15:53:49;21.30;79.50
28947;DHT22;16052;50.930;5.326;2023-05-18T15:56:15;21.30;80.10